Time;durP1;ratioP1;P1;durP2;ratioP2;P2;SDS_P1;SDS_P2;PMS_P1;PMS_P2;Temp;Humidity;BMP_temperature;BMP_pressure;BME280_temperature;BME280_humidity;BME280_pressure;Samples;Min_cycle;Max_cycle;Signal;HPM_P1;HPM_P2
2024/01/10 00:01:26;;;;;;;70.28;33.25;;;;;;;-10.92;93.15;102944.53;7400993;19;20031;-66
2024/01/10 00:03:55;;;;;;;73.60;35.08;;;;;;;-10.93;93.12;102950.34;7398274;19;20029;-66
2024/01/10 00:06:24;;;;;;;66.50;33.40;;;;;;;-10.93;93.13;102950.34;7400720;19;20074;-66
2024/01/10 00:08:52;;;;;;;70.95;34.75;;;;;;;-10.95;93.16;102937.53;7400566;19;20015;-66
2024/01/10 00:11:21;;;;;;;66.10;33.42;;;;;;;-10.96;93.15;102943.34;7398005;19;20023;-66
2024/01/10 00:13:52;;;;;;;75.00;35.80;;;;;;;-10.95;93.14;102942.59;7399004;19;20019;-66
2024/01/10 00:16:20;;;;;;;74.65;34.78;;;;;;;-10.95;93.12;102940.06;7397735;19;20023;-66
2024/01/10 00:18:49;;;;;;;73.93;34.38;;;;;;;-10.97;93.24;102936.47;7400514;19;20031;-66
2024/01/10 00:21:18;;;;;;;67.90;33.63;;;;;;;-10.98;93.32;102938.13;7399861;19;20014;-66
2024/01/10 00:23:46;;;;;;;74.72;35.17;;;;;;;-10.98;93.32;102942.28;7398303;19;20433;-66
2024/01/10 00:26:15;;;;;;;75.97;37.08;;;;;;;-10.99;93.20;102931.25;7400048;19;20011;-66
2024/01/10 00:28:45;;;;;;;75.85;34.85;;;;;;;-10.99;93.41;102937.97;7400209;19;20014;-66
2024/01/10 00:31:17;;;;;;;73.88;33.65;;;;;;;-11.00;93.42;102934.50;7400800;19;20031;-65
2024/01/10 00:33:45;;;;;;;67.40;34.25;;;;;;;-11.00;93.37;102936.16;7398012;19;20494;-66
2024/01/10 00:36:14;;;;;;;78.03;36.15;;;;;;;-11.01;93.30;102927.66;7396795;19;20015;-65
2024/01/10 00:38:42;;;;;;;78.28;36.20;;;;;;;-11.03;93.24;102921.53;7399560;19;20363;-66
2024/01/10 00:41:11;;;;;;;67.90;34.38;;;;;;;-11.04;93.32;102919.75;7399578;19;20436;-66
2024/01/10 00:43:40;;;;;;;72.13;36.00;;;;;;;-11.03;93.40;102930.78;7398161;19;20355;-66
2024/01/10 00:46:08;;;;;;;85.43;38.92;;;;;;;-11.05;93.45;102919.59;7399354;19;20018;-66
2024/01/10 00:48:39;;;;;;;76.05;36.17;;;;;;;-11.06;93.48;102915.25;7399319;19;20014;-66
2024/01/10 00:51:08;;;;;;;79.50;37.60;;;;;;;-11.05;93.42;102925.56;7398849;19;20031;-66
2024/01/10 00:53:38;;;;;;;77.82;35.97;;;;;;;-11.05;93.48;102925.56;7397947;19;20014;-66
2024/01/10 00:56:07;;;;;;;79.68;36.53;;;;;;;-11.07;93.40;102916.88;7396813;19;20014;-66
2024/01/10 00:58:36;;;;;;;80.32;38.38;;;;;;;-11.07;93.44;102923.59;7396344;19;20478;-65
2024/01/10 01:01:04;;;;;;;78.80;37.22;;;;;;;-11.08;93.54;102927.78;7398507;19;20465;-66
2024/01/10 01:03:33;;;;;;;70.28;35.85;;;;;;;-11.08;93.50;102931.94;7396496;19;20018;-66
2024/01/10 01:06:04;;;;;;;80.85;38.33;;;;;;;-11.08;93.60;102930.31;7398721;19;20027;-66
2024/01/10 01:08:32;;;;;;;89.15;37.45;;;;;;;-11.10;93.63;102936.88;7397387;19;20031;-66
2024/01/10 01:11:01;;;;;;;91.25;38.95;;;;;;;-11.10;93.60;102936.00;7398264;19;20014;-66
2024/01/10 01:13:29;;;;;;;83.22;38.08;;;;;;;-11.11;93.82;102937.59;7397628;19;20014;-66
2024/01/10 01:15:58;;;;;;;80.03;39.50;;;;;;;-11.11;93.58;102937.59;7396239;19;20418;-66
2024/01/10 01:18:33;;;;;;;85.57;38.78;;;;;;;-11.12;93.82;102933.28;7395502;19;20085;-66
2024/01/10 01:21:04;;;;;;;80.25;35.92;;;;;;;-11.11;93.65;102937.59;7396580;19;20031;-66
2024/01/10 01:23:32;;;;;;;81.53;38.17;;;;;;;-11.13;93.64;102934.94;7397104;19;20413;-66
2024/01/10 01:26:03;;;;;;;88.97;40.30;;;;;;;-11.14;93.64;102938.19;7398019;19;20015;-66
2024/01/10 01:28:32;;;;;;;91.43;38.80;;;;;;;-11.13;93.55;102936.56;7396006;19;20386;-65
2024/01/10 01:31:00;;;;;;;88.72;38.35;;;;;;;-11.15;93.65;102936.41;7397821;19;20078;-66
2024/01/10 01:33:29;;;;;;;84.28;39.22;;;;;;;-11.15;93.66;102933.84;7396501;19;20468;-66
2024/01/10 01:35:57;;;;;;;83.90;38.03;;;;;;;-11.15;93.81;102930.44;7397712;19;20015;-66
2024/01/10 01:38:29;;;;;;;85.88;40.17;;;;;;;-11.15;93.78;102927.91;7395236;19;20015;-66
2024/01/10 01:40:57;;;;;;;85.38;38.13;;;;;;;-11.15;93.79;102922.84;7397285;19;20481;-66
2024/01/10 01:43:27;;;;;;;82.38;37.78;;;;;;;-11.15;93.82;102925.38;7395632;19;20010;-66
2024/01/10 01:45:57;;;;;;;89.72;42.33;;;;;;;-11.14;93.77;102927.16;7397067;19;20020;-66
2024/01/10 01:48:27;;;;;;;85.85;39.33;;;;;;;-11.14;93.81;102917.91;7397267;19;20010;-66
2024/01/10 01:50:59;;;;;;;86.68;39.10;;;;;;;-11.14;93.90;102909.44;7397191;19;20014;-66
2024/01/10 01:53:31;;;;;;;78.95;38.60;;;;;;;-11.14;nan;102917.03;7396041;19;20017;-66
2024/01/10 01:56:03;;;;;;;91.43;41.42;;;;;;;-11.16;93.94;102918.50;7397407;19;20379;-66
2024/01/10 01:58:32;;;;;;;88.20;39.90;;;;;;;-11.14;93.84;102911.97;7395975;19;20010;-66
2024/01/10 02:01:01;;;;;;;89.38;40.10;;;;;;;-11.14;93.97;102917.03;7396829;19;20007;-66
2024/01/10 02:03:29;;;;;;;87.57;40.47;;;;;;;-11.15;93.78;102920.31;7395517;19;20381;-66
2024/01/10 02:05:57;;;;;;;87.03;39.08;;;;;;;-11.15;93.95;102913.59;7395218;19;20015;-66
2024/01/10 02:08:26;;;;;;;84.03;40.30;;;;;;;-11.14;93.97;102911.97;7396590;19;20032;-66
2024/01/10 02:10:57;;;;;;;88.32;40.90;;;;;;;-11.15;93.95;102911.03;7396625;19;20019;-66
2024/01/10 02:13:26;;;;;;;83.72;38.90;;;;;;;-11.14;93.97;102917.03;7396140;19;20473;-65
2024/01/10 02:15:54;;;;;;;80.45;37.28;;;;;;;-11.14;93.90;102922.09;7394321;19;20517;-66
2024/01/10 02:18:23;;;;;;;87.68;42.22;;;;;;;-11.14;93.89;102922.09;7394578;19;20014;-66
2024/01/10 02:20:52;;;;;;;80.07;38.72;;;;;;;-11.15;94.02;102925.38;7393639;19;20023;-66
2024/01/10 02:23:21;;;;;;;84.85;39.88;;;;;;;-11.16;93.84;102921.03;7395045;19;20014;-66
2024/01/10 02:25:52;;;;;;;81.57;38.17;;;;;;;-11.16;93.87;102916.88;7395738;19;20014;-66
2024/01/10 02:28:23;;;;;;;88.03;38.63;;;;;;;-11.17;93.97;102922.69;7396319;19;20437;-66
2024/01/10 02:30:51;;;;;;;90.13;40.72;;;;;;;-11.18;94.06;102909.88;7395597;19;20484;-66
2024/01/10 02:33:20;;;;;;;79.93;38.70;;;;;;;-11.18;94.16;102909.88;7393684;19;20092;-66
2024/01/10 02:35:48;;;;;;;92.88;38.55;;;;;;;-11.19;94.17;102903.00;7395796;19;20021;-66
2024/01/10 02:38:19;;;;;;;89.68;40.88;;;;;;;-11.20;94.09;102908.81;7394348;19;20024;-66
2024/01/10 02:40:48;;;;;;;84.95;38.78;;;;;;;-11.20;94.06;102906.28;7396058;19;20022;-66
2024/01/10 02:43:19;;;;;;;88.22;40.33;;;;;;;-11.20;94.07;102901.19;7393408;19;20014;-66
2024/01/10 02:45:48;;;;;;;79.18;37.90;;;;;;;-11.21;94.17;102902.81;7395158;19;20066;-66
2024/01/10 02:48:16;;;;;;;90.78;41.90;;;;;;;-11.20;94.05;102903.72;7393797;19;20015;-66
2024/01/10 02:50:45;;;;;;;92.82;41.03;;;;;;;-11.20;94.00;102896.13;7396091;19;20027;-66
2024/01/10 02:53:13;;;;;;;90.38;41.83;;;;;;;-11.21;94.05;102890.16;7394748;19;20040;-65
2024/01/10 02:55:41;;;;;;;95.88;40.83;;;;;;;-11.22;94.02;102895.97;7394944;19;20018;-66
2024/01/10 02:58:10;;;;;;;85.93;41.25;;;;;;;-11.22;94.06;102888.38;7394246;19;20031;-66
2024/01/10 03:00:41;;;;;;;93.05;41.72;;;;;;;-11.22;94.04;102898.53;7395081;19;20014;-66
2024/01/10 03:03:09;;;;;;;91.75;41.42;;;;;;;-11.23;94.00;102895.81;7394180;19;20014;-66
2024/01/10 03:05:38;;;;;;;90.75;39.72;;;;;;;-11.23;94.14;102891.66;7394841;19;20015;-66
2024/01/10 03:08:07;;;;;;;92.28;41.30;;;;;;;-11.24;94.08;102883.91;7394489;19;20380;-65
2024/01/10 03:10:36;;;;;;;88.95;41.10;;;;;;;-11.24;94.05;102883.91;7392967;19;20015;-66
2024/01/10 03:13:04;;;;;;;88.88;40.95;;;;;;;-11.24;94.17;102878.84;7393755;19;20498;-66
2024/01/10 03:15:33;;;;;;;87.22;39.90;;;;;;;-11.25;93.94;102877.03;7392873;19;20031;-66
2024/01/10 03:18:04;;;;;;;95.22;40.95;;;;;;;-11.26;93.88;102877.75;7394082;19;20014;-66
2024/01/10 03:20:33;;;;;;;86.93;40.47;;;;;;;-11.28;94.04;102872.56;7395508;19;20362;-66
2024/01/10 03:23:01;;;;;;;90.60;40.63;;;;;;;-11.29;94.09;102865.69;7394507;19;20022;-66
2024/01/10 03:25:30;;;;;;;92.10;42.33;;;;;;;-11.30;94.11;102863.88;7394000;19;20382;-66
2024/01/10 03:27:58;;;;;;;99.10;42.13;;;;;;;-11.32;94.02;102860.28;7392428;19;20031;-66
2024/01/10 03:30:26;;;;;;;86.20;39.40;;;;;;;-11.32;94.08;102870.44;7393996;19;20472;-65
2024/01/10 03:32:55;;;;;;;95.30;42.60;;;;;;;-11.33;94.09;102864.47;7399956;19;20014;-66
2024/01/10 03:35:26;;;;;;;85.82;40.25;;;;;;;-11.33;93.98;102867.00;7398997;19;20023;-66
2024/01/10 03:37:54;;;;;;;99.45;43.67;;;;;;;-11.34;93.97;102871.94;7400442;19;20010;-66
2024/01/10 03:40:23;;;;;;;86.53;40.30;;;;;;;-11.35;94.16;102876.09;7401631;19;20014;-66
2024/01/10 03:42:51;;;;;;;88.95;42.15;;;;;;;-11.35;94.08;102873.53;7398760;19;20108;-66
2024/01/10 03:45:22;;;;;;;95.63;41.85;;;;;;;-11.36;94.03;102865.78;7401452;19;20018;-66
2024/01/10 03:47:52;;;;;;;88.20;39.67;;;;;;;-11.38;94.07;102870.72;7401808;19;20011;-66
2024/01/10 03:50:21;;;;;;;90.53;40.78;;;;;;;-11.39;94.12;102870.56;7401355;19;20010;-66
2024/01/10 03:52:52;;;;;;;88.30;37.83;;;;;;;-11.42;94.14;102873.69;7400844;19;20042;-67
2024/01/10 03:55:20;;;;;;;85.60;40.08;;;;;;;-11.44;94.15;102870.09;7398875;19;20028;-66
2024/01/10 03:57:49;;;;;;;87.05;39.42;;;;;;;-11.45;94.11;102883.50;7400115;19;20018;-65
2024/01/10 04:00:17;;;;;;;89.00;40.50;;;;;;;-11.47;94.09;102874.88;7400346;19;20481;-65
2024/01/10 04:02:46;;;;;;;89.03;40.35;;;;;;;-11.49;94.11;102876.34;7400269;19;20014;-65
2024/01/10 04:05:14;;;;;;;87.90;39.38;;;;;;;-11.51;93.89;102876.19;7400218;19;20415;-65
2024/01/10 04:07:44;;;;;;;94.18;41.83;;;;;;;-11.52;93.94;102881.97;7400230;19;20035;-65
2024/01/10 04:10:16;;;;;;;94.70;43.88;;;;;;;-11.51;93.96;102880.34;7400197;19;20018;-65
2024/01/10 04:12:45;;;;;;;88.40;40.50;;;;;;;-11.52;94.06;102886.16;7400355;19;20010;-65
2024/01/10 04:15:14;;;;;;;96.88;43.10;;;;;;;-11.53;94.05;102881.84;7399866;19;20094;-65
2024/01/10 04:17:43;;;;;;;97.47;43.72;;;;;;;-11.54;94.05;102877.50;7397514;19;20074;-65
2024/01/10 04:20:19;;;;;;;94.05;42.90;;;;;;;-11.54;94.16;102872.44;7397128;19;20544;-65
2024/01/10 04:22:47;;;;;;;86.18;41.70;;;;;;;-11.56;94.11;102874.81;7399461;19;20560;-65
2024/01/10 04:25:18;;;;;;;92.22;40.97;;;;;;;-11.55;94.10;102873.16;7399507;19;20023;-65
2024/01/10 04:27:50;;;;;;;88.45;40.45;;;;;;;-11.57;94.13;102878.09;7399681;19;20077;-65
2024/01/10 04:30:15;;;;;;;89.60;41.70;;;;;;;-11.57;93.94;102877.16;7399863;19;20404;-65
2024/01/10 04:32:44;;;;;;;84.90;40.95;;;;;;;-11.59;93.93;102879.56;7399334;19;20011;-65
2024/01/10 04:35:12;;;;;;;105.20;46.65;;;;;;;-11.59;94.00;102879.56;7399400;19;20533;-65
2024/01/10 04:37:41;;;;;;;93.18;41.95;;;;;;;-11.60;94.19;102881.94;7396994;19;20022;-65
2024/01/10 04:40:10;;;;;;;99.13;41.72;;;;;;;-11.62;93.96;102880.13;7396774;19;20538;-65
2024/01/10 04:42:42;;;;;;;93.47;44.53;;;;;;;-11.64;93.91;102876.56;7395257;19;20018;-65
2024/01/10 04:45:12;;;;;;;100.60;43.03;;;;;;;-11.65;93.99;102874.78;7398584;19;20023;-65
2024/01/10 04:47:40;;;;;;;92.03;40.45;;;;;;;-11.64;94.07;102875.66;7399024;19;20015;-65
2024/01/10 04:50:10;;;;;;;98.85;43.03;;;;;;;-11.64;94.10;102880.72;7398964;19;20011;-65
2024/01/10 04:52:38;;;;;;;95.15;44.05;;;;;;;-11.65;93.95;102866.25;7396546;19;20074;-65
2024/01/10 04:55:08;;;;;;;89.80;42.17;;;;;;;-11.66;93.73;102865.38;7398818;19;20074;-65
2024/01/10 04:57:37;;;;;;;98.00;43.95;;;;;;;-11.67;93.82;102857.63;7398111;19;20025;-65
2024/01/10 05:00:10;;;;;;;108.05;46.72;;;;;;;-11.69;93.90;102852.41;7395706;19;20011;-65
2024/01/10 05:02:39;;;;;;;102.97;46.05;;;;;;;-11.68;93.98;102858.38;7396377;19;20017;-65
2024/01/10 05:05:08;;;;;;;130.32;55.38;;;;;;;-11.69;93.92;102860.00;7396390;19;20014;-64
2024/01/10 05:07:37;;;;;;;93.72;43.13;;;;;;;-11.70;93.98;102850.63;7398232;19;20070;-65
2024/01/10 05:10:12;;;;;;;94.05;41.40;;;;;;;-11.70;94.00;102852.22;7397019;19;20094;-65
2024/01/10 05:12:40;;;;;;;96.03;44.42;;;;;;;-11.71;94.06;102847.91;7398028;19;20023;-65
2024/01/10 05:15:12;;;;;;;96.22;41.75;;;;;;;-11.72;93.91;102849.56;7395859;19;20074;-65
2024/01/10 05:17:47;;;;;;;96.18;43.78;;;;;;;-11.73;93.72;102855.34;7396528;19;20074;-65
2024/01/10 05:20:22;;;;;;;113.55;44.75;;;;;;;-11.75;93.53;102850.88;7398386;19;20070;-65
2024/01/10 05:22:51;;;;;;;95.60;41.13;;;;;;;-11.77;93.44;102849.84;7397086;19;20034;-65
2024/01/10 05:25:20;;;;;;;105.25;44.50;;;;;;;-11.78;93.79;102853.97;7398033;19;20019;-65
2024/01/10 05:27:48;;;;;;;93.80;45.72;;;;;;;-11.77;93.78;102849.84;7397786;19;20016;-65
2024/01/10 05:30:20;;;;;;;95.10;41.40;;;;;;;-11.79;93.73;102850.56;7395819;19;20011;-65
2024/01/10 05:32:48;;;;;;;102.50;43.42;;;;;;;-11.79;93.72;102858.16;7395904;19;20023;-65
2024/01/10 05:35:17;;;;;;;99.38;43.50;;;;;;;-11.79;93.83;102849.66;7397880;19;20019;-65
2024/01/10 05:37:45;;;;;;;99.88;45.53;;;;;;;-11.79;93.77;102849.66;7397315;19;20485;-65
2024/01/10 05:40:14;;;;;;;95.95;44.75;;;;;;;-11.80;93.85;102851.31;7395487;19;20023;-65
2024/01/10 05:42:42;;;;;;;102.00;47.25;;;;;;;-11.81;93.91;102839.38;7397149;19;20027;-65
2024/01/10 05:45:12;;;;;;;99.63;44.35;;;;;;;-11.81;93.64;102841.03;7396600;19;20537;-65
2024/01/10 05:47:43;;;;;;;98.28;45.72;;;;;;;-11.81;93.81;102841.91;7395774;19;20011;-65
2024/01/10 05:50:11;;;;;;;98.57;43.13;;;;;;;-11.81;93.73;102841.03;7397105;19;20078;-65
2024/01/10 05:52:40;;;;;;;96.93;45.33;;;;;;;-11.82;93.82;102846.81;7396412;19;20430;-65
2024/01/10 05:55:09;;;;;;;97.32;44.28;;;;;;;-11.85;93.45;102841.44;7395953;19;20415;-65
2024/01/10 05:57:38;;;;;;;103.43;46.30;;;;;;;-11.85;93.69;102844.88;7394109;19;20010;-65
2024/01/10 06:00:09;;;;;;;100.85;44.67;;;;;;;-11.86;93.65;102848.13;7394155;19;20496;-67
2024/01/10 06:02:38;;;;;;;93.85;46.25;;;;;;;-11.86;93.68;102847.25;7393808;19;20038;-65
2024/01/10 06:05:11;;;;;;;91.63;44.33;;;;;;;-11.86;93.66;102847.25;7395569;19;20037;-63
2024/01/10 06:07:40;;;;;;;111.88;46.90;;;;;;;-11.87;93.46;102850.53;7396303;19;20097;-63
2024/01/10 06:10:10;;;;;;;100.97;44.28;;;;;;;-11.87;93.83;102845.47;7395574;19;20438;-63
2024/01/10 06:12:38;;;;;;;104.00;46.15;;;;;;;-11.86;94.00;102852.31;7395577;19;20079;-63
2024/01/10 06:15:09;;;;;;;109.47;47.53;;;;;;;-11.87;93.88;102846.34;7394227;19;20010;-62
2024/01/10 06:17:38;;;;;;;95.75;44.30;;;;;;;-11.87;93.93;102845.47;7394083;19;20050;-62
2024/01/10 06:20:10;;;;;;;96.90;43.97;;;;;;;-11.87;93.55;102848.88;7394922;19;20349;-66
2024/01/10 06:22:38;;;;;;;105.07;45.78;;;;;;;-11.88;93.79;102847.06;7396162;19;20014;-64
2024/01/10 06:25:08;;;;;;;89.43;42.67;;;;;;;-11.89;93.56;102836.78;7394049;19;20081;-66
2024/01/10 06:27:37;;;;;;;93.45;43.05;;;;;;;-11.90;93.63;102838.44;7396287;19;20207;-63
2024/01/10 06:30:07;;;;;;;111.03;49.30;;;;;;;-11.87;93.56;102846.34;7395675;19;20018;-65
2024/01/10 06:32:35;;;;;;;104.88;46.25;;;;;;;-11.86;93.50;102840.53;7393609;19;20007;-63
2024/01/10 06:35:04;;;;;;;98.10;45.50;;;;;;;-11.86;93.64;102837.13;7394132;19;20015;-63
2024/01/10 06:37:35;;;;;;;95.45;45.20;;;;;;;-11.85;93.39;102846.50;7395592;19;20018;-64
2024/01/10 06:40:04;;;;;;;104.43;45.75;;;;;;;-11.84;93.22;102840.69;7394622;19;20018;-63
2024/01/10 06:42:33;;;;;;;99.65;44.05;;;;;;;-11.85;93.31;102849.03;7395141;19;20103;-63
2024/01/10 06:45:01;;;;;;;102.97;45.83;;;;;;;-11.86;93.46;102842.19;7395004;19;20038;-65
2024/01/10 06:47:30;;;;;;;103.70;43.05;;;;;;;-11.86;93.34;102842.19;7395197;19;20045;-64
2024/01/10 06:49:58;;;;;;;105.25;43.65;;;;;;;-11.86;93.57;102842.19;7393202;19;20014;-64
2024/01/10 06:52:27;;;;;;;103.85;42.85;;;;;;;-11.86;93.92;102848.13;7394777;19;20033;-64
2024/01/10 06:54:58;;;;;;;101.05;42.78;;;;;;;-11.85;93.84;102843.97;7393027;19;20502;-64
2024/01/10 06:57:26;;;;;;;107.93;46.58;;;;;;;-11.86;93.64;102843.06;7394653;19;20360;-64
2024/01/10 06:59:55;;;;;;;102.28;45.85;;;;;;;-11.87;93.71;102840.41;7393583;19;20018;-64
2024/01/10 07:02:25;;;;;;;92.00;43.92;;;;;;;-11.88;93.59;102841.13;7393194;19;20078;-64
2024/01/10 07:04:53;;;;;;;97.00;41.17;;;;;;;-11.89;93.85;102837.72;7392303;19;20070;-64
2024/01/10 07:07:22;;;;;;;107.53;44.53;;;;;;;-11.89;93.42;102841.84;7396835;19;20018;-64
2024/01/10 07:09:50;;;;;;;94.45;45.60;;;;;;;-11.90;93.77;102848.56;7402955;19;20015;-65
2024/01/10 07:12:21;;;;;;;100.43;43.72;;;;;;;-11.91;93.77;102848.41;7399261;19;20025;-64
2024/01/10 07:14:50;;;;;;;102.90;44.53;;;;;;;-11.92;93.90;102847.50;7399505;19;20074;-63
2024/01/10 07:17:18;;;;;;;96.10;44.60;;;;;;;-11.91;93.83;102844.25;7399194;19;20011;-63
2024/01/10 07:19:47;;;;;;;108.00;48.08;;;;;;;-11.91;93.83;102840.81;7399504;19;20086;-63
2024/01/10 07:22:15;;;;;;;100.57;45.13;;;;;;;-11.92;93.94;102836.50;7402120;19;20011;-63
2024/01/10 07:24:44;;;;;;;101.13;45.53;;;;;;;-11.92;93.84;102841.56;7398977;19;20023;-64
2024/01/10 07:27:14;;;;;;;101.78;44.53;;;;;;;-11.92;93.85;102839.03;7398720;19;20006;-64
2024/01/10 07:29:45;;;;;;;102.68;45.72;;;;;;;-11.92;93.84;102841.56;7402001;19;20017;-62
2024/01/10 07:32:14;;;;;;;107.38;46.67;;;;;;;-11.89;94.12;102841.84;7399584;19;20010;-64
2024/01/10 07:34:44;;;;;;;107.88;46.63;;;;;;;-11.86;94.32;102838.00;7398175;19;20086;-68
2024/01/10 07:37:13;;;;;;;97.95;46.28;;;;;;;-11.84;94.31;102846.69;7401691;19;20014;-68
2024/01/10 07:39:41;;;;;;;105.80;47.83;;;;;;;-11.82;94.28;102837.56;7399245;19;20010;-68
2024/01/10 07:42:10;;;;;;;100.80;46.03;;;;;;;-11.80;94.23;102848.78;7399774;19;20020;-68
2024/01/10 07:44:45;;;;;;;103.18;47.47;;;;;;;-11.79;94.25;102848.03;7399704;19;20019;-68
2024/01/10 07:47:16;;;;;;;109.38;46.90;;;;;;;-11.76;94.37;102846.53;7401056;19;20022;-68
2024/01/10 07:49:44;;;;;;;103.22;47.40;;;;;;;-11.73;94.33;102851.94;7397982;19;20071;-72
2024/01/10 07:52:13;;;;;;;108.13;45.40;;;;;;;-11.72;94.38;102852.09;7398045;19;20023;-68
2024/01/10 07:54:41;;;;;;;111.90;50.97;;;;;;;-11.70;94.05;102848.09;7397658;19;20458;-68
2024/01/10 07:57:11;;;;;;;106.00;47.50;;;;;;;-11.69;93.93;102857.47;7400489;19;20127;-65
2024/01/10 07:59:39;;;;;;;99.40;47.25;;;;;;;-11.69;93.86;102849.88;7398195;19;20094;-68
2024/01/10 08:02:10;;;;;;;102.78;46.63;;;;;;;-11.73;93.82;102837.63;7400265;19;20015;-73
2024/01/10 08:04:41;;;;;;;111.53;49.20;;;;;;;-11.66;94.17;102842.59;7398062;19;20034;-68
2024/01/10 08:07:09;;;;;;;114.43;48.67;;;;;;;-11.64;94.34;102841.13;7400919;19;20003;-69
2024/01/10 08:09:38;;;;;;;111.15;46.95;;;;;;;-11.61;94.31;102840.53;7400139;19;20010;-69
2024/01/10 08:12:07;;;;;;;101.60;46.50;;;;;;;-11.55;95.16;102841.16;7397841;19;20013;-69
2024/01/10 08:14:37;;;;;;;110.88;48.22;;;;;;;-11.46;96.01;102847.16;7397797;19;20070;-69
2024/01/10 08:17:06;;;;;;;110.22;49.45;;;;;;;-11.36;96.00;102838.84;7399817;19;20423;-68
2024/01/10 08:19:35;;;;;;;110.47;50.75;;;;;;;-11.25;96.06;102839.91;7396783;19;20070;-68
2024/01/10 08:22:07;;;;;;;108.43;49.67;;;;;;;-11.18;95.63;102841.44;7399102;19;20070;-68
2024/01/10 08:24:36;;;;;;;108.68;52.28;;;;;;;-11.12;95.31;102847.09;7397410;19;20011;-68
2024/01/10 08:27:05;;;;;;;112.72;49.30;;;;;;;-11.06;95.16;102845.16;7399162;19;20448;-68
2024/01/10 08:29:33;;;;;;;110.45;49.90;;;;;;;-10.96;95.16;102852.06;7399803;19;20024;-69
2024/01/10 08:32:24;;;;;;;112.32;48.45;;;;;;;-10.88;94.97;102835.06;7399496;19;20043;-68
2024/01/10 08:34:52;;;;;;;101.43;46.85;;;;;;;-10.84;94.93;102837.13;7397249;19;20013;-68
2024/01/10 08:37:23;;;;;;;100.88;46.20;;;;;;;-10.81;94.64;102832.38;7399531;19;20010;-69
2024/01/10 08:39:53;;;;;;;102.05;47.55;;;;;;;-10.78;94.74;102830.13;7398192;19;20007;-68
2024/01/10 08:42:21;;;;;;;111.78;48.53;;;;;;;-10.76;94.37;102831.19;7399328;19;20417;-69
2024/01/10 08:44:50;;;;;;;115.72;49.92;;;;;;;-10.72;94.55;102832.41;7397239;19;20082;-68
2024/01/10 08:47:18;;;;;;;103.28;48.33;;;;;;;-10.68;94.63;102834.47;7398829;19;20078;-68
2024/01/10 08:49:47;;;;;;;121.25;51.58;;;;;;;-10.66;94.38;102838.06;7398738;19;20032;-67
2024/01/10 08:52:15;;;;;;;110.78;51.85;;;;;;;-10.63;93.74;102838.34;7396428;19;20046;-69
2024/01/10 08:54:46;;;;;;;107.30;50.85;;;;;;;-10.61;93.92;102836.88;7395604;19;20006;-69
2024/01/10 08:57:15;;;;;;;104.70;50.60;;;;;;;-10.56;94.29;102839.88;7399252;19;20027;-68
2024/01/10 08:59:44;;;;;;;107.03;51.75;;;;;;;-10.53;94.08;102842.69;7397645;19;20419;-69
2024/01/10 09:02:13;;;;;;;108.20;51.25;;;;;;;-10.49;94.28;102838.09;7400467;19;20018;-69
2024/01/10 09:04:41;;;;;;;113.10;52.50;;;;;;;-10.44;93.96;102848.66;7396226;19;20010;-69
2024/01/10 09:07:10;;;;;;;107.63;49.70;;;;;;;-10.40;93.80;102847.31;7398696;19;20015;-69
2024/01/10 09:09:39;;;;;;;103.25;48.78;;;;;;;-10.38;93.64;102841.63;7397958;19;20477;-69
2024/01/10 09:12:10;;;;;;;114.72;50.65;;;;;;;-10.33;93.95;102840.41;7398285;19;20071;-68
2024/01/10 09:14:39;;;;;;;111.13;50.97;;;;;;;-10.29;93.95;102845.81;7396393;19;20102;-70
2024/01/10 09:17:08;;;;;;;115.35;51.88;;;;;;;-10.25;93.97;102838.59;7396114;19;20034;-70
2024/01/10 09:19:42;;;;;;;106.30;50.95;;;;;;;-10.20;93.71;102842.47;7396130;19;20078;-70
2024/01/10 09:22:11;;;;;;;118.07;51.22;;;;;;;-10.17;93.98;102842.78;7395913;19;20078;-70
2024/01/10 09:24:39;;;;;;;117.10;51.38;;;;;;;-10.11;94.10;102845.00;7396420;19;20037;-70
2024/01/10 09:27:10;;;;;;;114.55;50.80;;;;;;;-10.07;93.80;102839.50;7397410;19;20011;-70
2024/01/10 09:29:39;;;;;;;112.18;53.40;;;;;;;-10.04;93.14;102839.78;7395733;19;20525;-69
2024/01/10 09:32:08;;;;;;;107.07;46.90;;;;;;;-10.00;93.71;102836.78;7397119;19;20014;-70
2024/01/10 09:34:37;;;;;;;108.63;47.90;;;;;;;-9.94;93.61;102838.09;7395018;19;20014;-70
2024/01/10 09:37:06;;;;;;;106.07;47.72;;;;;;;-9.89;93.63;102836.91;7396852;19;20011;-70
2024/01/10 09:39:34;;;;;;;108.53;51.83;;;;;;;-9.85;93.71;102834.78;7396853;19;20010;-70
2024/01/10 09:42:03;;;;;;;99.53;48.40;;;;;;;-9.78;93.29;102840.47;7396674;19;20376;-70
2024/01/10 09:44:35;;;;;;;110.72;51.90;;;;;;;-9.73;93.40;102837.63;7395665;19;20027;-70
2024/01/10 09:47:05;;;;;;;121.15;54.10;;;;;;;-9.67;93.52;102840.75;7396043;19;20018;-69
2024/01/10 09:49:33;;;;;;;110.43;47.85;;;;;;;-9.61;93.30;102836.97;7397725;19;20006;-69
2024/01/10 09:52:05;;;;;;;109.93;49.17;;;;;;;-9.54;93.64;102844.41;7397474;19;20011;-68
2024/01/10 09:54:34;;;;;;;98.50;48.78;;;;;;;-9.48;93.58;102837.34;7394777;19;20035;-69
2024/01/10 09:57:03;;;;;;;99.10;49.65;;;;;;;-9.42;93.01;102840.47;7396950;19;20091;-69
2024/01/10 09:59:34;;;;;;;105.53;46.92;;;;;;;-9.35;93.53;102837.75;7397457;19;20495;-69
2024/01/10 10:02:06;;;;;;;101.70;46.00;;;;;;;-9.29;93.55;102837.41;7397748;19;20018;-69
2024/01/10 10:04:35;;;;;;;103.45;48.22;;;;;;;-9.22;93.47;102841.44;7394766;19;20015;-70
2024/01/10 10:07:04;;;;;;;100.30;46.90;;;;;;;-9.15;93.24;102838.69;7396963;19;20014;-69
2024/01/10 10:09:34;;;;;;;99.20;47.10;;;;;;;-9.09;93.36;102836.72;7396510;19;20074;-69
2024/01/10 10:12:02;;;;;;;111.35;50.88;;;;;;;-9.03;93.67;102831.31;7397447;19;20094;-69
2024/01/10 10:14:34;;;;;;;98.55;46.58;;;;;;;-8.98;93.33;102831.69;7395224;19;20011;-69
2024/01/10 10:17:17;;;;;;;97.57;46.22;;;;;;;-8.90;92.93;102830.75;7394219;19;20070;-70
2024/01/10 10:19:47;;;;;;;106.35;47.00;;;;;;;-8.84;92.96;102824.56;7394400;19;20011;-69
2024/01/10 10:22:15;;;;;;;91.25;43.33;;;;;;;-8.75;92.51;102823.63;7396094;19;20037;-69
2024/01/10 10:24:44;;;;;;;95.63;46.15;;;;;;;-8.70;92.71;102820.72;7394070;19;20537;-70
2024/01/10 10:27:15;;;;;;;98.93;46.28;;;;;;;-8.59;92.61;102820.78;7394889;19;20470;-70
2024/01/10 10:29:46;;;;;;;94.05;45.22;;;;;;;-8.56;93.25;102809.25;7396897;19;20010;-71
2024/01/10 10:32:14;;;;;;;93.68;45.63;;;;;;;-8.47;93.20;102816.81;7396303;19;20032;-70
2024/01/10 10:34:43;;;;;;;103.05;48.30;;;;;;;-8.41;93.49;102816.44;7393776;19;20020;-69
2024/01/10 10:37:11;;;;;;;94.32;46.65;;;;;;;-8.36;92.32;102816.06;7396350;19;20010;-69
2024/01/10 10:39:41;;;;;;;92.20;40.95;;;;;;;-8.28;93.00;102815.84;7396177;19;20021;-69
2024/01/10 10:42:10;;;;;;;92.95;43.70;;;;;;;-8.21;92.70;102818.19;7393030;19;20343;-69
2024/01/10 10:44:42;;;;;;;90.85;45.83;;;;;;;-8.15;92.06;102811.09;7396977;19;20027;-70
2024/01/10 10:47:17;;;;;;;95.38;43.55;;;;;;;-8.07;92.39;102809.22;7394252;19;20484;-69
2024/01/10 10:49:54;;;;;;;90.28;44.47;;;;;;;-7.99;92.23;102799.69;7395019;19;20073;-69
2024/01/10 10:52:24;;;;;;;90.07;40.72;;;;;;;-7.92;92.24;102790.16;7395645;19;20029;-69
2024/01/10 10:54:55;;;;;;;88.75;40.03;;;;;;;-7.84;91.78;102793.34;7393291;19;20020;-69
2024/01/10 10:57:25;;;;;;;87.68;41.50;;;;;;;-7.76;88.91;102791.47;7395905;19;20006;-69
2024/01/10 10:59:55;;;;;;;83.30;39.72;;;;;;;-7.68;90.71;102798.13;7395700;19;20011;-69
2024/01/10 11:02:26;;;;;;;84.82;41.17;;;;;;;-7.60;90.67;102786.03;7395190;19;20021;-69
2024/01/10 11:04:57;;;;;;;90.85;42.13;;;;;;;-7.52;90.26;102792.66;7395254;19;20074;-70
2024/01/10 11:07:25;;;;;;;91.80;42.30;;;;;;;-7.46;91.31;102782.97;7394461;19;20086;-69
2024/01/10 11:09:55;;;;;;;83.57;41.95;;;;;;;-7.38;91.63;102784.53;7394103;19;20014;-69